Andover, SD (57422)

1:46 AM CDT on August 31, 2015 (GMT -0500)
APRSWXNET | | Change Station
CLOSE
Current Station
Personal Weather Station
Location: Groton, SD
Elevation: 1315 ft
Nearby Weather Stations

Elev 1315 ft 45.44 °N, 98.09 °W | Updated 19 minutes ago

Clear
Clear
69 °F
Feels Like 69 °F
N
14
Wind Variable Wind from SE
Gusts 27.0 mph

Today
High -- | Low -- °F
--% Chance of Precip.
Yesterday
High -- | Low -- °F
Precip. -- in
6:51 AM 8:11 PM
Waning Gibbous, 97% visible
Pressure 29.71 in
Visibility 10.0 miles
Clouds Clear
Dew Point 64 °F
Humidity 85%
Rainfall in
Snow Depth Not available.
UV 0 out of 12
Pollen 11.40 out of 12
Air Quality Not available.
Flu Activity Not available.
METAR KABR 310553Z AUTO 17019G26KT 10SM CLR 21/18 A2973 RMK AO2 PK WND 16026/0550 SLP059 T02060178 10272 20206 402940178 58002
Pressure 29.71 in
Visibility 10.0 miles
Clouds Clear
Dew Point 64 °F
Humidity 85%
Rainfall in
Snow Depth Not available.
UV 0 out of 12
Pollen 11.40 out of 12
Air Quality Not available.
Flu Activity Not available.
METAR KABR 310553Z AUTO 17019G26KT 10SM CLR 21/18 A2973 RMK AO2 PK WND 16026/0550 SLP059 T02060178 10272 20206 402940178 58002

10-Day Weather Forecast

×

Almanac

Astronomy

Aug. 31, 2015 Rise Set
Actual Time
Civil Twilight
Nautical Twilight
Astronomical Twilight
Moon
Length of Visible Light
Length of Day
Tomorrow will be .
, % of the Moon is Illuminated

Today's Extremes

State Highs State Lows

Community

WunderPhotos

Upload Photos

1,851,217 photos uploaded!

WunderBlogs® & News

Nearby

Air Quality

  Air Quality AQ Index Pollutant
Not available.

Snow Depth

Station Depth Elevation

Earthquake Activity

City Distance Mag. Time & Date
Minimum magnitude displayed is 2.5.

Coastal Water Temperatures

Place Temperature

Stations

Nearby Weather Stations

Station Location Temp. Windchill Dew Point Humidity Wind Precip. Elev Updated Type